createdAt,value
2019-04-11T00:00:28.519Z,994.20
2019-04-11T00:01:38.702Z,994.23
2019-04-11T00:02:28.978Z,994.20
2019-04-11T00:03:29.228Z,994.18
2019-04-11T00:04:28.631Z,994.18
2019-04-11T00:05:28.665Z,994.19
2019-04-11T00:06:29.759Z,994.20
2019-04-11T00:07:28.716Z,994.19
2019-04-11T00:08:28.744Z,994.23
2019-04-11T00:09:28.773Z,994.23
2019-04-11T00:10:29.207Z,994.18
2019-04-11T00:11:28.829Z,994.23
2019-04-11T00:12:28.858Z,994.20
2019-04-11T00:13:31.491Z,994.16
2019-04-11T00:14:29.646Z,994.17
2019-04-11T00:15:28.941Z,994.18
2019-04-11T00:16:29.048Z,994.17
2019-04-11T00:17:30.037Z,994.19
2019-04-11T00:18:29.028Z,994.18
2019-04-11T00:19:29.471Z,994.18
2019-04-11T00:20:29.081Z,994.15
2019-04-11T00:21:29.109Z,994.17
2019-04-11T00:22:29.895Z,994.17
2019-04-11T00:23:30.214Z,994.17
2019-04-11T00:24:29.302Z,994.23
2019-04-11T00:25:29.220Z,994.24
2019-04-11T00:26:30.487Z,994.24
2019-04-11T00:27:29.275Z,994.25
2019-04-11T00:28:29.935Z,994.23
2019-04-11T00:29:30.289Z,994.22
2019-04-11T00:30:30.322Z,994.24
2019-04-11T00:31:30.570Z,994.24
2019-04-11T00:32:29.654Z,994.26
2019-04-11T00:33:29.959Z,994.27
2019-04-11T00:34:29.472Z,994.29
2019-04-11T00:35:29.500Z,994.24
2019-04-11T00:36:30.514Z,994.30
2019-04-11T00:37:29.555Z,994.30
2019-04-11T00:38:29.931Z,994.26
2019-04-11T00:39:29.925Z,994.29
2019-04-11T00:40:29.638Z,994.29
2019-04-11T00:41:30.809Z,994.31
2019-04-11T00:42:30.439Z,994.29
2019-04-11T00:43:35.872Z,994.29
2019-04-11T00:44:30.615Z,994.29
2019-04-11T00:45:29.801Z,994.29
2019-04-11T00:46:29.806Z,994.24
2019-04-11T00:47:31.119Z,994.23
2019-04-11T00:48:30.073Z,994.24
2019-04-11T00:49:30.384Z,994.25
2019-04-11T00:50:30.193Z,994.24
2019-04-11T00:51:29.945Z,994.23
2019-04-11T00:52:29.973Z,994.24
2019-04-11T00:53:30.000Z,994.28
2019-04-11T00:54:30.978Z,994.30
2019-04-11T00:55:30.101Z,994.25
2019-04-11T00:56:30.468Z,994.28
2019-04-11T00:57:30.704Z,994.30
2019-04-11T00:58:30.139Z,994.33
2019-04-11T00:59:30.166Z,994.29
2019-04-11T01:00:31.202Z,994.28
2019-04-11T01:01:31.513Z,994.28
2019-04-11T01:02:31.329Z,994.30
2019-04-11T01:03:30.511Z,994.35
2019-04-11T01:04:30.305Z,994.34
2019-04-11T01:05:30.331Z,994.33
2019-04-11T01:06:30.361Z,994.35
2019-04-11T01:07:31.130Z,994.34
2019-04-11T01:08:31.469Z,994.33
2019-04-11T01:09:30.604Z,994.32
2019-04-11T01:10:30.472Z,994.30
2019-04-11T01:11:30.500Z,994.33
2019-04-11T01:12:30.527Z,994.31
2019-04-11T01:13:41.702Z,994.28
2019-04-11T01:14:30.585Z,994.25
2019-04-11T01:15:31.385Z,994.28
2019-04-11T01:16:30.640Z,994.29
2019-04-11T01:17:31.574Z,994.27
2019-04-11T01:18:30.948Z,994.28
2019-04-11T01:19:30.954Z,994.30
2019-04-11T01:20:31.403Z,994.32
2019-04-11T01:21:30.778Z,994.33
2019-04-11T01:22:31.783Z,994.28
2019-04-11T01:23:31.109Z,994.32
2019-04-11T01:24:31.518Z,994.37
2019-04-11T01:25:30.890Z,994.32
2019-04-11T01:26:30.930Z,994.31
2019-04-11T01:27:32.042Z,994.33
2019-04-11T01:28:31.064Z,994.31
2019-04-11T01:29:31.382Z,994.33
2019-04-11T01:30:31.735Z,994.35
2019-04-11T01:31:31.054Z,994.34
2019-04-11T01:32:31.083Z,994.39
2019-04-11T01:33:31.770Z,994.36
2019-04-11T01:34:31.139Z,994.39
2019-04-11T01:35:31.169Z,994.45
2019-04-11T01:36:31.195Z,994.41
2019-04-11T01:37:31.449Z,994.40
2019-04-11T01:38:32.447Z,994.42
2019-04-11T01:39:31.278Z,994.42
2019-04-11T01:40:31.892Z,994.39
2019-04-11T01:41:31.433Z,994.40
2019-04-11T01:42:31.366Z,994.44
2019-04-11T01:43:32.431Z,994.42
2019-04-11T01:44:32.436Z,994.40
2019-04-11T01:45:31.703Z,994.45
2019-04-11T01:46:31.936Z,994.46
2019-04-11T01:47:31.500Z,994.48
2019-04-11T01:48:31.527Z,994.48
2019-04-11T01:49:32.356Z,994.45
2019-04-11T01:50:32.711Z,994.50
2019-04-11T01:51:31.774Z,994.50
2019-04-11T01:52:31.637Z,994.53
2019-04-11T01:53:31.666Z,994.56
2019-04-11T01:54:32.156Z,994.53
2019-04-11T01:55:32.558Z,994.52
2019-04-11T01:56:31.748Z,994.53
2019-04-11T01:57:31.813Z,994.52
2019-04-11T01:58:32.909Z,994.54
2019-04-11T01:59:31.830Z,994.55
2019-04-11T02:00:32.290Z,994.53
2019-04-11T02:01:32.685Z,994.57
2019-04-11T02:02:32.682Z,994.57
2019-04-11T02:03:32.991Z,994.59
2019-04-11T02:04:32.123Z,994.57
2019-04-11T02:05:32.826Z,994.64
2019-04-11T02:06:32.065Z,994.64
2019-04-11T02:07:32.052Z,994.66
2019-04-11T02:08:32.081Z,994.64
2019-04-11T02:09:32.447Z,994.65
2019-04-11T02:10:32.825Z,994.58
2019-04-11T02:11:32.164Z,994.65
2019-04-11T02:12:32.190Z,994.64
2019-04-11T02:13:32.231Z,994.60
2019-04-11T02:14:33.357Z,994.64
2019-04-11T02:15:32.452Z,994.58
2019-04-11T02:16:32.752Z,994.60
2019-04-11T02:17:32.874Z,994.63
2019-04-11T02:18:32.357Z,994.68
2019-04-11T02:19:32.382Z,994.65
2019-04-11T02:20:33.347Z,994.68
2019-04-11T02:21:33.615Z,994.65
2019-04-11T02:22:32.740Z,994.67
2019-04-11T02:23:32.495Z,994.63
2019-04-11T02:24:32.534Z,994.69
2019-04-11T02:25:32.549Z,994.65
2019-04-11T02:26:33.529Z,994.65
2019-04-11T02:27:32.741Z,994.70
2019-04-11T02:28:32.854Z,994.60
2019-04-11T02:29:33.295Z,994.66
2019-04-11T02:30:33.978Z,994.68
2019-04-11T02:31:32.763Z,994.69
2019-04-11T02:32:34.372Z,994.68
2019-04-11T02:33:32.983Z,994.73
2019-04-11T02:34:32.797Z,994.72
2019-04-11T02:35:32.824Z,994.71
2019-04-11T02:36:34.201Z,994.73
2019-04-11T02:37:34.350Z,994.74
2019-04-11T02:38:34.696Z,994.74
2019-04-11T02:39:35.288Z,994.78
2019-04-11T02:40:32.969Z,994.77
2019-04-11T02:41:35.111Z,994.76
2019-04-11T02:42:33.597Z,994.81
2019-04-11T02:43:34.281Z,994.78
2019-04-11T02:44:51.019Z,994.77
2019-04-11T02:45:45.200Z,994.80
2019-04-11T02:46:42.458Z,994.80
2019-04-11T02:47:35.251Z,994.85
2019-04-11T02:48:35.279Z,994.85
2019-04-11T02:49:35.061Z,994.89
2019-04-11T02:50:34.447Z,994.89
2019-04-11T02:51:34.535Z,994.92
2019-04-11T02:52:33.631Z,994.88
2019-04-11T02:53:34.368Z,994.90
2019-04-11T02:54:33.823Z,994.90
2019-04-11T02:56:35.669Z,994.89
2019-04-11T02:57:34.349Z,994.90
2019-04-11T02:58:34.545Z,994.85
2019-04-11T02:59:34.491Z,994.90
2019-04-11T03:00:35.461Z,994.92
2019-04-11T03:01:34.079Z,994.91
2019-04-11T03:02:34.733Z,994.94
2019-04-11T03:03:34.126Z,994.96
2019-04-11T03:04:34.747Z,994.94
2019-04-11T03:05:35.214Z,994.94
2019-04-11T03:06:35.250Z,994.95
2019-04-11T03:07:34.132Z,994.94
2019-04-11T03:08:36.146Z,994.95
2019-04-11T03:09:35.126Z,994.96
2019-04-11T03:10:35.507Z,994.99
2019-04-11T03:11:34.642Z,994.97
2019-04-11T03:12:35.905Z,994.97
2019-04-11T03:13:35.331Z,994.98
2019-04-11T03:14:54.483Z,995.04
2019-04-11T03:15:48.721Z,995.01
2019-04-11T03:16:46.736Z,995.03
2019-04-11T03:17:40.063Z,994.99
2019-04-11T03:18:53.174Z,994.98
2019-04-11T03:19:49.100Z,994.98
2019-04-11T03:20:40.729Z,995.05
2019-04-11T03:21:39.146Z,995.05
2019-04-11T03:22:34.591Z,995.10
2019-04-11T03:23:35.461Z,995.09
2019-04-11T03:24:35.909Z,995.11
2019-04-11T03:25:34.180Z,995.10
2019-04-11T03:26:35.478Z,995.11
2019-04-11T03:27:34.952Z,995.09
2019-04-11T03:28:36.443Z,995.10
2019-04-11T03:29:36.221Z,995.10
2019-04-11T03:30:57.336Z,995.12
2019-04-11T03:32:13.596Z,995.12
2019-04-11T03:33:40.215Z,995.14
2019-04-11T03:36:22.135Z,995.11
2019-04-11T03:37:13.689Z,995.13
2019-04-11T03:38:00.386Z,995.17
2019-04-11T03:38:55.491Z,995.15
2019-04-11T03:39:56.842Z,995.13
2019-04-11T03:40:50.504Z,995.11
2019-04-11T03:41:53.686Z,995.13
2019-04-11T03:42:47.920Z,995.12
2019-04-11T03:43:45.883Z,995.13
2019-04-11T03:44:41.744Z,995.19
2019-04-11T03:45:56.293Z,995.20
2019-04-11T03:46:51.138Z,995.17
2019-04-11T03:47:50.530Z,995.21
2019-04-11T03:48:49.633Z,995.20
2019-04-11T03:49:41.982Z,995.18
2019-04-11T03:50:37.106Z,995.24
2019-04-11T03:51:36.503Z,995.21
2019-04-11T03:52:34.906Z,995.26
2019-04-11T03:53:37.053Z,995.27
2019-04-11T03:54:36.725Z,995.21
2019-04-11T03:55:35.095Z,995.24
2019-04-11T03:56:35.194Z,995.25
2019-04-11T03:57:35.047Z,995.29
2019-04-11T03:58:35.064Z,995.31
2019-04-11T03:59:36.637Z,995.34
2019-04-11T04:00:38.278Z,995.29
2019-04-11T04:01:35.550Z,995.27
2019-04-11T04:02:37.123Z,995.26
2019-04-11T04:03:36.600Z,995.28
2019-04-11T04:04:35.678Z,995.29
2019-04-11T04:05:36.945Z,995.25
2019-04-11T04:09:12.960Z,995.36
2019-04-11T04:10:13.258Z,995.39
2019-04-11T04:11:12.310Z,995.37
2019-04-11T04:12:12.051Z,995.40
2019-04-11T04:13:16.146Z,995.41
2019-04-11T04:14:12.644Z,995.40
2019-04-11T04:15:23.780Z,995.37
2019-04-11T04:16:18.683Z,995.46
2019-04-11T04:17:11.429Z,995.45
2019-04-11T04:18:12.942Z,995.46
2019-04-11T04:19:15.195Z,995.46
2019-04-11T04:20:12.794Z,995.48
2019-04-11T04:21:11.481Z,995.47
2019-04-11T04:22:13.398Z,995.49
2019-04-11T04:23:12.384Z,995.51
2019-04-11T04:24:11.560Z,995.53
2019-04-11T04:25:12.400Z,995.54
2019-04-11T04:26:12.299Z,995.56
2019-04-11T04:27:13.022Z,995.53
2019-04-11T04:28:12.222Z,995.53
2019-04-11T04:29:12.003Z,995.47
2019-04-11T04:30:13.721Z,995.56
2019-04-11T04:31:11.771Z,995.61
2019-04-11T04:32:12.105Z,995.57
2019-04-11T04:33:12.959Z,995.65
2019-04-11T04:34:11.874Z,995.62
2019-04-11T04:35:16.750Z,995.64
2019-04-11T04:36:13.880Z,995.63
2019-04-11T04:37:12.119Z,995.66
2019-04-11T04:38:13.625Z,995.65
2019-04-11T04:39:12.600Z,995.66
2019-04-11T04:40:28.390Z,995.66
2019-04-11T04:41:22.357Z,995.65
2019-04-11T04:42:21.895Z,995.67
2019-04-11T04:43:12.095Z,995.68
2019-04-11T04:44:12.588Z,995.65
2019-04-11T04:45:14.131Z,995.68
2019-04-11T04:46:30.029Z,995.66
2019-04-11T04:47:21.084Z,995.66
2019-04-11T04:48:15.920Z,995.72
2019-04-11T04:49:15.309Z,995.69
2019-04-11T04:50:13.411Z,995.70
2019-04-11T04:51:15.232Z,995.69
2019-04-11T04:52:14.290Z,995.74
2019-04-11T04:53:13.708Z,995.72
2019-04-11T04:54:12.344Z,995.73
2019-04-11T04:55:12.939Z,995.77
2019-04-11T04:56:13.409Z,995.78
2019-04-11T04:57:13.196Z,995.78
2019-04-11T04:58:13.153Z,995.81
2019-04-11T04:59:14.648Z,995.81
2019-04-11T05:00:14.292Z,995.80
2019-04-11T05:01:12.824Z,995.85
2019-04-11T05:02:12.912Z,995.82
2019-04-11T05:03:13.503Z,995.88
2019-04-11T05:04:13.961Z,995.89
2019-04-11T05:05:13.616Z,995.91
2019-04-11T05:06:14.207Z,995.89
2019-04-11T05:07:12.683Z,995.90
2019-04-11T05:08:14.352Z,995.91
2019-04-11T05:09:12.933Z,995.90
2019-04-11T05:10:13.447Z,995.95
2019-04-11T05:11:13.973Z,995.94
2019-04-11T05:12:13.876Z,995.92
2019-04-11T05:13:13.618Z,995.93
2019-04-11T05:14:14.526Z,995.98
2019-04-11T05:15:14.434Z,996.03
2019-04-11T05:16:17.265Z,996.01
2019-04-11T05:17:12.961Z,995.99
2019-04-11T05:18:15.597Z,996.01
2019-04-11T05:19:12.992Z,996.06
2019-04-11T05:20:14.065Z,996.13
2019-04-11T05:21:13.045Z,996.11
2019-04-11T05:22:13.070Z,996.13
2019-04-11T05:23:13.923Z,996.11
2019-04-11T05:24:13.125Z,996.14
2019-04-11T05:25:13.148Z,996.16
2019-04-11T05:26:13.174Z,996.16
2019-04-11T05:27:13.199Z,996.14
2019-04-11T05:28:13.981Z,996.16
2019-04-11T05:29:13.259Z,996.18
2019-04-11T05:30:14.581Z,996.15
2019-04-11T05:31:14.326Z,996.20
2019-04-11T05:32:13.414Z,996.16
2019-04-11T05:33:13.627Z,996.21
2019-04-11T05:34:13.948Z,996.19
2019-04-11T05:35:14.391Z,996.18
2019-04-11T05:36:14.381Z,996.23
2019-04-11T05:37:13.457Z,996.19
2019-04-11T05:38:13.535Z,996.21
2019-04-11T05:39:15.602Z,996.22
2019-04-11T05:40:14.646Z,996.22
2019-04-11T05:41:13.902Z,996.23
2019-04-11T05:42:17.786Z,996.24
2019-04-11T05:43:13.621Z,996.23
2019-04-11T05:44:14.614Z,996.28
2019-04-11T05:45:19.084Z,996.26
2019-04-11T05:46:26.432Z,996.31
2019-04-11T05:47:18.122Z,996.29
2019-04-11T05:49:16.935Z,996.31
2019-04-11T05:50:16.356Z,996.31
2019-04-11T05:51:21.180Z,996.30
2019-04-11T05:52:17.684Z,996.27
2019-04-11T05:53:18.921Z,996.30
2019-04-11T05:54:16.527Z,996.30
2019-04-11T05:55:17.566Z,996.33
2019-04-11T05:56:18.749Z,996.32
2019-04-11T05:57:21.757Z,996.34
2019-04-11T05:58:17.569Z,996.33
2019-04-11T05:59:17.231Z,996.35
2019-04-11T06:00:16.618Z,996.34
2019-04-11T06:01:16.645Z,996.35
2019-04-11T06:02:17.202Z,996.39
2019-04-11T06:03:17.658Z,996.37
2019-04-11T06:04:20.955Z,996.40
2019-04-11T06:05:17.299Z,996.45
2019-04-11T06:06:16.772Z,996.44
2019-04-11T06:07:16.831Z,996.43
2019-04-11T06:08:23.523Z,996.44
2019-04-11T06:09:16.851Z,996.47
2019-04-11T06:10:17.799Z,996.45
2019-04-11T06:11:20.869Z,996.46
2019-04-11T06:12:17.187Z,996.46
2019-04-11T06:13:16.957Z,996.46
2019-04-11T06:14:17.302Z,996.46
2019-04-11T06:15:19.633Z,996.46
2019-04-11T06:16:17.035Z,996.48
2019-04-11T06:17:18.369Z,996.51
2019-04-11T06:18:26.219Z,996.52
2019-04-11T06:19:17.116Z,996.51
2019-04-11T06:20:17.745Z,996.52
2019-04-11T06:21:17.922Z,996.52
2019-04-11T06:22:19.673Z,996.49
2019-04-11T06:23:17.220Z,996.50
2019-04-11T06:24:18.196Z,996.53
2019-04-11T06:25:19.248Z,996.53
2019-04-11T06:26:18.750Z,996.60
2019-04-11T06:27:17.324Z,996.57
2019-04-11T06:28:18.030Z,996.55
2019-04-11T06:29:24.378Z,996.57
2019-04-11T06:30:17.883Z,996.55
2019-04-11T06:31:18.121Z,996.53
2019-04-11T06:32:17.457Z,996.56
2019-04-11T06:33:18.504Z,996.58
2019-04-11T06:34:17.623Z,996.56
2019-04-11T06:35:17.738Z,996.63
2019-04-11T06:36:18.087Z,996.56
2019-04-11T06:37:17.590Z,996.55
2019-04-11T06:38:18.505Z,996.55
2019-04-11T06:39:18.941Z,996.60
2019-04-11T06:40:18.094Z,996.64
2019-04-11T06:41:18.742Z,996.67
2019-04-11T06:42:17.724Z,996.68
2019-04-11T06:43:18.349Z,996.66
2019-04-11T06:44:17.777Z,996.72
2019-04-11T06:45:17.804Z,996.69
2019-04-11T06:46:18.797Z,996.73
2019-04-11T06:47:18.805Z,996.76
2019-04-11T06:48:17.885Z,996.74
2019-04-11T06:49:18.333Z,996.76
2019-04-11T06:50:17.937Z,996.75
2019-04-11T06:51:17.963Z,996.69
2019-04-11T06:52:18.891Z,996.73
2019-04-11T06:53:18.889Z,996.75
2019-04-11T06:54:19.064Z,996.77
2019-04-11T06:55:18.287Z,996.74
2019-04-11T06:56:18.969Z,996.73
2019-04-11T06:57:18.126Z,996.78
2019-04-11T06:58:19.228Z,996.76
2019-04-11T06:59:18.478Z,996.75
2019-04-11T07:00:18.205Z,996.76
2019-04-11T07:01:18.259Z,996.78
2019-04-11T07:02:21.334Z,996.77
2019-04-11T07:03:23.173Z,996.79
2019-04-11T07:04:18.313Z,996.76
2019-04-11T07:05:18.408Z,996.75
2019-04-11T07:06:19.527Z,996.81
2019-04-11T07:07:18.531Z,996.77
2019-04-11T07:08:18.420Z,996.79
2019-04-11T07:09:18.447Z,996.83
2019-04-11T07:10:18.474Z,996.83
2019-04-11T07:11:18.501Z,996.82
2019-04-11T07:12:18.529Z,996.87
2019-04-11T07:13:18.556Z,996.84
2019-04-11T07:14:18.583Z,996.85
2019-04-11T07:15:18.764Z,996.85
2019-04-11T07:16:19.917Z,996.82
2019-04-11T07:17:18.921Z,996.86
2019-04-11T07:18:18.691Z,996.84
2019-04-11T07:19:19.773Z,996.82
2019-04-11T07:20:18.747Z,996.83
2019-04-11T07:21:19.082Z,996.83
2019-04-11T07:22:18.800Z,996.83
2019-04-11T07:23:20.049Z,996.84
2019-04-11T07:24:18.858Z,996.83
2019-04-11T07:25:20.217Z,996.83
2019-04-11T07:26:18.953Z,996.83
2019-04-11T07:27:20.106Z,996.85
2019-04-11T07:28:18.965Z,996.84
2019-04-11T07:29:19.449Z,996.87
2019-04-11T07:30:19.343Z,996.87
2019-04-11T07:31:19.333Z,996.84
2019-04-11T07:32:20.224Z,996.83
2019-04-11T07:33:20.177Z,996.89
2019-04-11T07:34:19.478Z,996.87
2019-04-11T07:35:19.340Z,996.89
2019-04-11T07:36:20.873Z,996.87
2019-04-11T07:37:19.256Z,996.88
2019-04-11T07:38:20.891Z,996.92
2019-04-11T07:39:20.164Z,996.88
2019-04-11T07:40:19.499Z,996.87
2019-04-11T07:41:19.644Z,996.89
2019-04-11T07:42:19.351Z,996.91
2019-04-11T07:43:19.556Z,996.92
2019-04-11T07:44:19.643Z,996.85
2019-04-11T07:45:19.434Z,996.91
2019-04-11T07:46:19.461Z,996.86
2019-04-11T07:47:23.426Z,996.92
2019-04-11T07:48:19.517Z,996.93
2019-04-11T07:49:19.895Z,996.93
2019-04-11T07:50:20.190Z,996.93
2019-04-11T07:51:19.724Z,996.94
2019-04-11T07:52:20.444Z,996.92
2019-04-11T07:53:19.809Z,996.93
2019-04-11T07:54:20.268Z,996.92
2019-04-11T07:55:19.715Z,996.98
2019-04-11T07:56:20.807Z,996.94
2019-04-11T07:57:19.774Z,996.98
2019-04-11T07:58:19.801Z,996.99
2019-04-11T07:59:19.832Z,996.93
2019-04-11T08:00:33.449Z,996.93
2019-04-11T08:01:21.076Z,996.92
2019-04-11T08:02:20.514Z,996.99
2019-04-11T08:03:21.191Z,996.93
2019-04-11T08:04:19.969Z,996.91
2019-04-11T08:05:19.998Z,996.95
2019-04-11T08:06:20.070Z,996.94
2019-04-11T08:07:20.055Z,996.98
2019-04-11T08:08:21.225Z,996.94
2019-04-11T08:09:20.113Z,996.95
2019-04-11T08:10:20.584Z,997.00
2019-04-11T08:11:20.170Z,997.00
2019-04-11T08:12:21.131Z,997.03
2019-04-11T08:13:20.709Z,997.03
2019-04-11T08:14:20.331Z,997.00
2019-04-11T08:15:20.286Z,997.02
2019-04-11T08:16:20.446Z,997.07
2019-04-11T08:17:28.013Z,997.11
2019-04-11T08:18:20.864Z,997.11
2019-04-11T08:19:21.057Z,997.15
2019-04-11T08:20:21.377Z,997.14
2019-04-11T08:21:20.464Z,997.10
2019-04-11T08:22:21.021Z,997.16
2019-04-11T08:23:21.385Z,997.15
2019-04-11T08:24:20.563Z,997.16
2019-04-11T08:25:20.913Z,997.13
2019-04-11T08:26:20.607Z,997.17
2019-04-11T08:27:20.634Z,997.17
2019-04-11T08:28:20.682Z,997.16
2019-04-11T08:29:20.693Z,997.17
2019-04-11T08:30:20.724Z,997.18
2019-04-11T08:31:21.556Z,997.17
2019-04-11T08:32:21.975Z,997.19
2019-04-11T08:33:20.811Z,997.16
2019-04-11T08:34:21.877Z,997.18
2019-04-11T08:35:20.870Z,997.17
2019-04-11T08:36:22.023Z,997.19
2019-04-11T08:37:21.193Z,997.26
2019-04-11T08:38:20.959Z,997.23
2019-04-11T08:39:20.988Z,997.26
2019-04-11T08:40:21.860Z,997.24
2019-04-11T08:41:21.049Z,997.26
2019-04-11T08:42:21.337Z,997.23
2019-04-11T08:43:21.387Z,997.24
2019-04-11T08:44:21.138Z,997.22
2019-04-11T08:45:21.565Z,997.17
2019-04-11T08:46:21.206Z,997.19
2019-04-11T08:47:22.426Z,997.22
2019-04-11T08:48:21.276Z,997.20
2019-04-11T08:49:21.578Z,997.25
2019-04-11T08:50:21.318Z,997.25
2019-04-11T08:51:21.348Z,997.23
2019-04-11T08:52:22.506Z,997.22
2019-04-11T08:53:21.418Z,997.22
2019-04-11T08:54:21.623Z,997.23
2019-04-11T08:55:21.471Z,997.25
2019-04-11T08:56:21.506Z,997.23
2019-04-11T08:58:22.625Z,997.25
2019-04-11T08:59:21.621Z,997.23
2019-04-11T09:01:22.245Z,997.23
2019-04-11T09:02:21.687Z,997.22
2019-04-11T09:03:21.771Z,997.30
2019-04-11T09:04:21.911Z,997.29
2019-04-11T09:05:22.780Z,997.27
2019-04-11T09:06:22.922Z,997.24
2019-04-11T09:07:21.864Z,997.25
2019-04-11T09:08:23.310Z,997.24
2019-04-11T09:09:23.124Z,997.24
2019-04-11T09:10:22.014Z,997.21
2019-04-11T09:11:22.539Z,997.21
2019-04-11T09:12:22.551Z,997.23
2019-04-11T09:13:22.964Z,997.26
2019-04-11T09:14:22.243Z,997.21
2019-04-11T09:15:22.091Z,997.25
2019-04-11T09:16:22.123Z,997.29
2019-04-11T09:17:23.318Z,997.26
2019-04-11T09:18:22.211Z,997.21
2019-04-11T09:19:23.051Z,997.25
2019-04-11T09:20:23.366Z,997.24
2019-04-11T09:21:22.355Z,997.26
2019-04-11T09:22:22.643Z,997.26
2019-04-11T09:23:22.344Z,997.21
2019-04-11T09:24:22.379Z,997.30
2019-04-11T09:25:23.294Z,997.30
2019-04-11T09:26:23.535Z,997.34
2019-04-11T09:27:22.705Z,997.30
2019-04-11T09:28:22.514Z,997.24
2019-04-11T09:29:26.140Z,997.28
2019-04-11T09:30:23.066Z,997.33
2019-04-11T09:31:22.608Z,997.34
2019-04-11T09:32:22.641Z,997.42
2019-04-11T09:33:22.770Z,997.43
2019-04-11T09:34:23.788Z,997.47
2019-04-11T09:35:24.100Z,997.50
2019-04-11T09:36:23.893Z,997.59
2019-04-11T09:37:22.819Z,997.62
2019-04-11T09:38:22.854Z,997.57
2019-04-11T09:39:23.385Z,997.55
2019-04-11T09:40:23.929Z,997.60
2019-04-11T09:41:22.964Z,997.62
2019-04-11T09:42:23.143Z,997.61
2019-04-11T09:43:24.455Z,997.72
2019-04-11T09:44:23.077Z,997.68
2019-04-11T09:45:23.684Z,997.63
2019-04-11T09:47:24.211Z,997.69
2019-04-11T09:48:24.590Z,997.69
2019-04-11T09:49:23.270Z,997.68
2019-04-11T09:50:24.541Z,997.73
2019-04-11T09:51:23.647Z,997.72
2019-04-11T09:52:23.411Z,997.73
2019-04-11T09:54:24.009Z,997.73
2019-04-11T09:56:23.547Z,997.72
2019-04-11T09:57:24.731Z,997.70
2019-04-11T09:58:23.646Z,997.70
2019-04-11T09:59:24.950Z,997.76
2019-04-11T10:00:23.713Z,997.66
2019-04-11T10:03:23.838Z,997.68
2019-04-11T10:04:25.517Z,997.77
2019-04-11T10:05:24.417Z,997.75
2019-04-11T10:06:23.960Z,997.78
2019-04-11T10:07:24.029Z,997.79
2019-04-11T10:08:24.578Z,997.79
2019-04-11T10:09:24.120Z,997.83
2019-04-11T10:12:24.411Z,997.85
2019-04-11T10:13:24.942Z,997.85
2019-04-11T10:14:24.294Z,997.84
2019-04-11T10:16:07.528Z,997.85
2019-04-11T10:17:06.936Z,997.83
2019-04-11T10:18:07.309Z,997.88
2019-04-11T10:19:07.584Z,997.78
2019-04-11T10:20:07.062Z,997.88
2019-04-11T10:22:07.148Z,997.90
2019-04-11T10:23:08.243Z,997.88
2019-04-11T10:24:14.419Z,997.82
2019-04-11T10:25:07.704Z,997.89
2019-04-11T10:27:50.956Z,997.94
2019-04-11T10:28:49.963Z,998.00
2019-04-11T10:30:33.527Z,997.97
2019-04-11T10:32:32.963Z,997.90
2019-04-11T10:33:33.192Z,997.93
2019-04-11T10:34:33.546Z,997.89
2019-04-11T10:35:36.516Z,997.91
2019-04-11T10:37:33.855Z,997.92
2019-04-11T10:38:32.939Z,998.01
2019-04-11T10:40:32.996Z,997.95
2019-04-11T10:41:34.681Z,997.96
2019-04-11T10:42:33.082Z,997.91
2019-04-11T10:43:34.160Z,997.98
2019-04-11T10:44:34.005Z,997.83
2019-04-11T10:48:39.283Z,998.05
2019-04-11T10:49:34.703Z,998.03
2019-04-11T10:51:50.394Z,998.02
2019-04-11T10:52:48.920Z,997.95
2019-04-11T10:53:47.039Z,998.01
2019-04-11T10:57:03.894Z,997.97
2019-04-11T10:58:04.800Z,997.94
2019-04-11T11:00:07.148Z,998.00
2019-04-11T11:01:04.070Z,998.01
2019-04-11T11:06:57.524Z,998.15
2019-04-11T11:08:55.485Z,998.22
2019-04-11T11:10:52.630Z,998.18
2019-04-11T11:12:51.730Z,998.14
2019-04-11T11:29:22.705Z,998.23
2019-04-11T11:30:23.099Z,998.22
2019-04-11T11:31:24.343Z,998.24
2019-04-11T11:32:23.071Z,998.17
2019-04-11T11:33:25.109Z,998.16
2019-04-11T11:36:23.538Z,998.19
2019-04-11T11:39:23.180Z,998.17
2019-04-11T11:40:23.910Z,998.19
2019-04-11T11:41:23.243Z,998.16
2019-04-11T11:42:23.292Z,998.11
2019-04-11T11:43:23.336Z,998.08
2019-04-11T11:44:24.475Z,998.13
2019-04-11T11:45:23.642Z,998.21
2019-04-11T11:46:26.742Z,998.20
2019-04-11T11:47:24.349Z,998.28
2019-04-11T11:48:24.804Z,998.36
2019-04-11T11:49:41.775Z,998.31
2019-04-11T11:50:23.913Z,998.27
2019-04-11T11:51:26.922Z,998.21
2019-04-11T11:52:24.791Z,998.24
2019-04-11T11:53:25.874Z,998.19
2019-04-11T11:54:24.064Z,998.25
2019-04-11T11:55:23.882Z,998.31
2019-04-11T11:56:24.135Z,998.26
2019-04-11T11:57:26.710Z,998.19
2019-04-11T11:58:24.020Z,998.18
2019-04-11T11:59:25.108Z,998.25
2019-04-11T12:00:27.341Z,998.13
2019-04-11T12:01:25.167Z,998.34
2019-04-11T12:02:24.607Z,998.23
2019-04-11T12:04:26.089Z,998.23
2019-04-11T12:05:26.396Z,998.27
2019-04-11T12:06:29.215Z,998.30
2019-04-11T12:07:25.183Z,998.29
2019-04-11T12:08:27.130Z,998.32
2019-04-11T12:10:24.574Z,998.31
2019-04-11T12:11:24.622Z,998.46
2019-04-11T12:12:24.722Z,998.45
2019-04-11T12:13:28.341Z,998.50
2019-04-11T12:14:29.526Z,998.47
2019-04-11T12:15:26.834Z,998.41
2019-04-11T12:16:25.913Z,998.47
2019-04-11T12:18:24.947Z,998.42
2019-04-11T12:19:25.032Z,998.32
2019-04-11T12:20:25.059Z,998.27
2019-04-11T12:21:27.852Z,998.34
2019-04-11T12:22:25.319Z,998.36
2019-04-11T12:23:25.985Z,998.33
2019-04-11T12:24:25.361Z,998.45
2019-04-11T12:26:28.808Z,998.47
2019-04-11T12:28:25.781Z,998.51
2019-04-11T12:29:27.243Z,998.37
2019-04-11T12:33:25.790Z,998.28
2019-04-11T12:35:27.076Z,998.40
2019-04-11T12:36:26.442Z,998.34
2019-04-11T12:37:25.839Z,998.37
2019-04-11T12:38:25.917Z,998.36
2019-04-11T12:39:25.931Z,998.41
2019-04-11T12:40:25.981Z,998.44
2019-04-11T12:41:26.024Z,998.35
2019-04-11T12:42:26.064Z,998.32
2019-04-11T12:43:26.117Z,998.28
2019-04-11T12:44:29.131Z,998.36
2019-04-11T12:45:26.213Z,998.50
2019-04-11T12:46:30.057Z,998.46
2019-04-11T12:47:26.387Z,998.37
2019-04-11T12:48:27.065Z,998.38
2019-04-11T12:49:26.621Z,998.25
2019-04-11T12:50:26.448Z,998.23
2019-04-11T12:51:26.497Z,998.19
2019-04-11T12:52:26.516Z,998.20
2019-04-11T12:53:26.560Z,998.24
2019-04-11T12:54:26.608Z,998.18
2019-04-11T12:55:26.654Z,998.17
2019-04-11T12:56:26.699Z,998.14
2019-04-11T12:57:26.745Z,998.34
2019-04-11T12:58:26.789Z,998.31
2019-04-11T12:59:26.835Z,998.32
2019-04-11T13:00:26.896Z,998.35
2019-04-11T13:01:26.949Z,998.38
2019-04-11T13:02:26.985Z,998.37
2019-04-11T13:03:27.039Z,998.22
2019-04-11T13:04:27.092Z,998.41
2019-04-11T13:05:27.130Z,998.35
2019-04-11T13:06:35.232Z,998.38
2019-04-11T13:07:27.216Z,998.28
2019-04-11T13:08:27.309Z,998.34
2019-04-11T13:09:27.309Z,998.29
2019-04-11T13:10:27.392Z,998.41
2019-04-11T13:11:27.398Z,998.43
2019-04-11T13:12:27.432Z,998.45
2019-04-11T13:13:27.475Z,998.47
2019-04-11T13:14:27.521Z,998.46
2019-04-11T13:15:27.568Z,998.46
2019-04-11T13:16:27.613Z,998.43
2019-04-11T13:17:27.659Z,998.48
2019-04-11T13:18:27.705Z,998.42
2019-04-11T13:20:27.795Z,998.43
2019-04-11T13:21:27.864Z,998.39
2019-04-11T13:22:27.886Z,998.43
2019-04-11T13:23:27.935Z,998.34
2019-04-11T13:24:27.978Z,998.31
2019-04-11T13:25:28.039Z,998.48
2019-04-11T13:26:28.069Z,998.35
2019-04-11T13:28:28.189Z,998.33
2019-04-11T13:29:28.238Z,998.38
2019-04-11T13:30:28.257Z,998.35
2019-04-11T13:31:28.328Z,998.27
2019-04-11T13:32:28.578Z,998.29
2019-04-11T13:36:28.541Z,998.09
2019-04-11T13:37:29.014Z,998.35
2019-04-11T13:38:41.976Z,998.34
2019-04-11T13:39:41.638Z,998.37
2019-04-11T13:40:28.950Z,998.35